sensor_id;sensor_type;location;lat;lon;timestamp;P1;durP1;ratioP1;P2;durP2;ratioP2
20236;SDS011;10277;54.386;18.596;2022-08-19T00:04:59;15.27;;;13.88;;
20236;SDS011;10277;54.386;18.596;2022-08-19T00:10:07;17.80;;;15.70;;
20236;SDS011;10277;54.386;18.596;2022-08-19T00:15:13;17.50;;;15.68;;
20236;SDS011;10277;54.386;18.596;2022-08-19T00:20:19;21.98;;;16.20;;
20236;SDS011;10277;54.386;18.596;2022-08-19T00:25:22;17.63;;;16.00;;
20236;SDS011;10277;54.386;18.596;2022-08-19T00:30:36;18.90;;;16.50;;
20236;SDS011;10277;54.386;18.596;2022-08-19T00:35:43;18.45;;;16.83;;
20236;SDS011;10277;54.386;18.596;2022-08-19T00:40:46;19.38;;;17.42;;
20236;SDS011;10277;54.386;18.596;2022-08-19T00:45:48;21.03;;;18.83;;
20236;SDS011;10277;54.386;18.596;2022-08-19T00:50:52;20.33;;;18.43;;
20236;SDS011;10277;54.386;18.596;2022-08-19T00:55:56;18.45;;;16.70;;
20236;SDS011;10277;54.386;18.596;2022-08-19T01:01:04;17.17;;;15.43;;
20236;SDS011;10277;54.386;18.596;2022-08-19T01:06:09;18.90;;;15.40;;
20236;SDS011;10277;54.386;18.596;2022-08-19T01:11:13;17.15;;;15.45;;
20236;SDS011;10277;54.386;18.596;2022-08-19T01:16:17;17.23;;;15.53;;
20236;SDS011;10277;54.386;18.596;2022-08-19T01:26:26;17.00;;;15.30;;
20236;SDS011;10277;54.386;18.596;2022-08-19T01:31:31;17.30;;;15.57;;
20236;SDS011;10277;54.386;18.596;2022-08-19T01:36:37;18.38;;;16.25;;
20236;SDS011;10277;54.386;18.596;2022-08-19T01:41:42;17.88;;;16.08;;
20236;SDS011;10277;54.386;18.596;2022-08-19T01:46:45;17.85;;;15.93;;
20236;SDS011;10277;54.386;18.596;2022-08-19T01:51:49;19.35;;;16.90;;
20236;SDS011;10277;54.386;18.596;2022-08-19T01:56:59;19.80;;;16.50;;
20236;SDS011;10277;54.386;18.596;2022-08-19T02:02:09;18.88;;;16.25;;
20236;SDS011;10277;54.386;18.596;2022-08-19T02:07:14;20.05;;;16.35;;
20236;SDS011;10277;54.386;18.596;2022-08-19T02:12:17;18.58;;;15.98;;
20236;SDS011;10277;54.386;18.596;2022-08-19T02:17:22;17.63;;;16.02;;
20236;SDS011;10277;54.386;18.596;2022-08-19T02:22:27;18.60;;;16.60;;
20236;SDS011;10277;54.386;18.596;2022-08-19T02:27:34;20.10;;;17.83;;
20236;SDS011;10277;54.386;18.596;2022-08-19T02:32:39;19.23;;;17.13;;
20236;SDS011;10277;54.386;18.596;2022-08-19T02:37:48;19.40;;;17.02;;
20236;SDS011;10277;54.386;18.596;2022-08-19T02:43:09;20.50;;;16.70;;
20236;SDS011;10277;54.386;18.596;2022-08-19T02:48:17;19.65;;;16.17;;
20236;SDS011;10277;54.386;18.596;2022-08-19T02:53:26;20.45;;;17.50;;
20236;SDS011;10277;54.386;18.596;2022-08-19T02:58:28;17.80;;;15.95;;
20236;SDS011;10277;54.386;18.596;2022-08-19T03:03:35;18.00;;;16.23;;
20236;SDS011;10277;54.386;18.596;2022-08-19T03:08:41;20.67;;;15.87;;
20236;SDS011;10277;54.386;18.596;2022-08-19T03:13:44;18.95;;;16.17;;
20236;SDS011;10277;54.386;18.596;2022-08-19T03:18:56;17.73;;;15.27;;
20236;SDS011;10277;54.386;18.596;2022-08-19T03:24:02;17.40;;;15.57;;
20236;SDS011;10277;54.386;18.596;2022-08-19T03:29:07;17.95;;;15.13;;
20236;SDS011;10277;54.386;18.596;2022-08-19T03:34:15;16.38;;;14.80;;
20236;SDS011;10277;54.386;18.596;2022-08-19T03:39:20;16.92;;;15.13;;
20236;SDS011;10277;54.386;18.596;2022-08-19T03:44:25;18.30;;;15.43;;
20236;SDS011;10277;54.386;18.596;2022-08-19T03:49:32;17.25;;;15.05;;
20236;SDS011;10277;54.386;18.596;2022-08-19T03:54:42;17.87;;;15.97;;
20236;SDS011;10277;54.386;18.596;2022-08-19T03:59:47;18.57;;;15.30;;
20236;SDS011;10277;54.386;18.596;2022-08-19T04:04:50;19.33;;;15.20;;
20236;SDS011;10277;54.386;18.596;2022-08-19T04:09:55;18.90;;;16.90;;
20236;SDS011;10277;54.386;18.596;2022-08-19T04:14:57;17.35;;;15.63;;
20236;SDS011;10277;54.386;18.596;2022-08-19T04:20:00;17.50;;;15.73;;
20236;SDS011;10277;54.386;18.596;2022-08-19T04:25:11;17.45;;;15.32;;
20236;SDS011;10277;54.386;18.596;2022-08-19T04:30:16;20.00;;;16.07;;
20236;SDS011;10277;54.386;18.596;2022-08-19T04:35:22;16.80;;;15.15;;
20236;SDS011;10277;54.386;18.596;2022-08-19T04:40:32;19.83;;;17.08;;
20236;SDS011;10277;54.386;18.596;2022-08-19T04:45:56;19.95;;;17.52;;
20236;SDS011;10277;54.386;18.596;2022-08-19T04:51:06;17.70;;;15.90;;
20236;SDS011;10277;54.386;18.596;2022-08-19T04:56:15;18.17;;;16.38;;
20236;SDS011;10277;54.386;18.596;2022-08-19T05:01:19;18.90;;;17.10;;
20236;SDS011;10277;54.386;18.596;2022-08-19T05:06:24;19.73;;;17.60;;
20236;SDS011;10277;54.386;18.596;2022-08-19T05:11:33;19.97;;;17.97;;
20236;SDS011;10277;54.386;18.596;2022-08-19T05:16:36;22.00;;;17.65;;
20236;SDS011;10277;54.386;18.596;2022-08-19T05:21:39;19.73;;;17.60;;
20236;SDS011;10277;54.386;18.596;2022-08-19T05:27:03;21.80;;;16.05;;
20236;SDS011;10277;54.386;18.596;2022-08-19T05:32:08;18.63;;;15.98;;
20236;SDS011;10277;54.386;18.596;2022-08-19T05:37:15;22.73;;;15.75;;
20236;SDS011;10277;54.386;18.596;2022-08-19T05:42:19;20.88;;;15.23;;
20236;SDS011;10277;54.386;18.596;2022-08-19T05:47:25;20.90;;;16.30;;
20236;SDS011;10277;54.386;18.596;2022-08-19T05:52:27;21.57;;;16.27;;
20236;SDS011;10277;54.386;18.596;2022-08-19T05:57:34;19.67;;;16.60;;
20236;SDS011;10277;54.386;18.596;2022-08-19T06:02:36;17.27;;;15.55;;
20236;SDS011;10277;54.386;18.596;2022-08-19T06:07:44;18.80;;;16.95;;
20236;SDS011;10277;54.386;18.596;2022-08-19T06:12:49;16.27;;;14.57;;
20236;SDS011;10277;54.386;18.596;2022-08-19T06:17:56;15.95;;;14.18;;
20236;SDS011;10277;54.386;18.596;2022-08-19T06:23:03;15.10;;;13.50;;
20236;SDS011;10277;54.386;18.596;2022-08-19T06:28:08;18.80;;;13.50;;
20236;SDS011;10277;54.386;18.596;2022-08-19T07:54:46;16.17;;;12.10;;
20236;SDS011;10277;54.386;18.596;2022-08-19T07:59:56;14.20;;;11.82;;
20236;SDS011;10277;54.386;18.596;2022-08-19T08:05:04;18.70;;;12.63;;
20236;SDS011;10277;54.386;18.596;2022-08-19T08:10:27;15.88;;;11.90;;
20236;SDS011;10277;54.386;18.596;2022-08-19T08:15:30;12.95;;;11.38;;
20236;SDS011;10277;54.386;18.596;2022-08-19T08:20:40;15.43;;;11.50;;
20236;SDS011;10277;54.386;18.596;2022-08-19T08:25:48;15.50;;;11.30;;
20236;SDS011;10277;54.386;18.596;2022-08-19T08:30:54;14.82;;;11.77;;
20236;SDS011;10277;54.386;18.596;2022-08-19T08:35:58;17.63;;;12.38;;
20236;SDS011;10277;54.386;18.596;2022-08-19T08:46:29;12.63;;;10.32;;
20236;SDS011;10277;54.386;18.596;2022-08-19T08:51:40;14.05;;;12.57;;
20236;SDS011;10277;54.386;18.596;2022-08-19T08:56:49;14.05;;;10.18;;
20236;SDS011;10277;54.386;18.596;2022-08-19T09:01:57;10.32;;;8.80;;
20236;SDS011;10277;54.386;18.596;2022-08-19T09:17:59;11.45;;;8.85;;
20236;SDS011;10277;54.386;18.596;2022-08-19T09:23:04;11.18;;;8.90;;
20236;SDS011;10277;54.386;18.596;2022-08-19T09:28:06;11.73;;;8.23;;
20236;SDS011;10277;54.386;18.596;2022-08-19T09:33:23;9.10;;;8.20;;
20236;SDS011;10277;54.386;18.596;2022-08-19T09:38:28;12.27;;;8.45;;
20236;SDS011;10277;54.386;18.596;2022-08-19T09:43:33;12.57;;;8.90;;
20236;SDS011;10277;54.386;18.596;2022-08-19T09:48:49;10.32;;;8.52;;
20236;SDS011;10277;54.386;18.596;2022-08-19T09:53:58;16.52;;;8.45;;
20236;SDS011;10277;54.386;18.596;2022-08-19T09:59:05;16.60;;;8.48;;
20236;SDS011;10277;54.386;18.596;2022-08-19T10:04:10;10.38;;;8.73;;
20236;SDS011;10277;54.386;18.596;2022-08-19T10:09:23;12.85;;;8.35;;
20236;SDS011;10277;54.386;18.596;2022-08-19T10:14:37;13.15;;;8.13;;
20236;SDS011;10277;54.386;18.596;2022-08-19T10:19:43;14.82;;;8.13;;
20236;SDS011;10277;54.386;18.596;2022-08-19T10:24:57;13.50;;;8.43;;
20236;SDS011;10277;54.386;18.596;2022-08-19T10:30:05;10.38;;;7.90;;
20236;SDS011;10277;54.386;18.596;2022-08-19T10:35:13;14.52;;;7.90;;
20236;SDS011;10277;54.386;18.596;2022-08-19T10:40:22;9.70;;;7.50;;
20236;SDS011;10277;54.386;18.596;2022-08-19T10:45:27;12.93;;;10.48;;
20236;SDS011;10277;54.386;18.596;2022-08-19T10:50:36;11.32;;;8.55;;
20236;SDS011;10277;54.386;18.596;2022-08-19T10:55:57;11.60;;;8.18;;
20236;SDS011;10277;54.386;18.596;2022-08-19T11:01:21;9.05;;;8.10;;
20236;SDS011;10277;54.386;18.596;2022-08-19T11:06:26;10.85;;;7.35;;
20236;SDS011;10277;54.386;18.596;2022-08-19T11:11:29;9.20;;;7.82;;
20236;SDS011;10277;54.386;18.596;2022-08-19T11:16:33;12.43;;;8.45;;
20236;SDS011;10277;54.386;18.596;2022-08-19T11:21:36;18.33;;;8.82;;
20236;SDS011;10277;54.386;18.596;2022-08-19T11:26:39;15.23;;;8.27;;
20236;SDS011;10277;54.386;18.596;2022-08-19T11:31:43;9.50;;;7.95;;
20236;SDS011;10277;54.386;18.596;2022-08-19T11:36:49;12.75;;;8.50;;
20236;SDS011;10277;54.386;18.596;2022-08-19T11:41:55;14.60;;;7.97;;
20236;SDS011;10277;54.386;18.596;2022-08-19T11:47:02;13.63;;;8.50;;
20236;SDS011;10277;54.386;18.596;2022-08-19T11:52:10;11.85;;;8.95;;
20236;SDS011;10277;54.386;18.596;2022-08-19T11:57:15;15.80;;;9.30;;
20236;SDS011;10277;54.386;18.596;2022-08-19T12:02:22;16.05;;;9.75;;
20236;SDS011;10277;54.386;18.596;2022-08-19T12:07:25;13.43;;;7.95;;
20236;SDS011;10277;54.386;18.596;2022-08-19T12:12:27;12.95;;;8.27;;
20236;SDS011;10277;54.386;18.596;2022-08-19T12:17:33;13.60;;;8.88;;
20236;SDS011;10277;54.386;18.596;2022-08-19T12:22:36;12.70;;;8.98;;
20236;SDS011;10277;54.386;18.596;2022-08-19T12:27:43;9.90;;;8.18;;
20236;SDS011;10277;54.386;18.596;2022-08-19T12:32:58;11.18;;;7.95;;
20236;SDS011;10277;54.386;18.596;2022-08-19T12:38:05;12.35;;;8.15;;
20236;SDS011;10277;54.386;18.596;2022-08-19T12:43:08;16.48;;;8.95;;
20236;SDS011;10277;54.386;18.596;2022-08-19T12:48:13;13.65;;;8.13;;
20236;SDS011;10277;54.386;18.596;2022-08-19T12:53:37;11.77;;;7.55;;
20236;SDS011;10277;54.386;18.596;2022-08-19T12:58:43;15.95;;;7.85;;
20236;SDS011;10277;54.386;18.596;2022-08-19T13:03:54;15.80;;;8.05;;
20236;SDS011;10277;54.386;18.596;2022-08-19T13:08:57;10.82;;;7.65;;
20236;SDS011;10277;54.386;18.596;2022-08-19T13:14:03;9.45;;;7.88;;
20236;SDS011;10277;54.386;18.596;2022-08-19T13:19:08;12.85;;;8.25;;
20236;SDS011;10277;54.386;18.596;2022-08-19T13:24:16;11.23;;;7.47;;
20236;SDS011;10277;54.386;18.596;2022-08-19T13:29:21;14.65;;;7.82;;
20236;SDS011;10277;54.386;18.596;2022-08-19T13:34:44;10.93;;;8.15;;
20236;SDS011;10277;54.386;18.596;2022-08-19T13:39:48;9.98;;;7.97;;
20236;SDS011;10277;54.386;18.596;2022-08-19T13:44:53;10.85;;;8.30;;
20236;SDS011;10277;54.386;18.596;2022-08-19T13:49:58;10.57;;;7.88;;
20236;SDS011;10277;54.386;18.596;2022-08-19T13:55:09;10.88;;;7.80;;
20236;SDS011;10277;54.386;18.596;2022-08-19T14:00:15;14.18;;;8.10;;
20236;SDS011;10277;54.386;18.596;2022-08-19T14:05:22;11.90;;;8.00;;
20236;SDS011;10277;54.386;18.596;2022-08-19T14:10:28;16.95;;;7.95;;
20236;SDS011;10277;54.386;18.596;2022-08-19T14:15:33;13.63;;;8.20;;
20236;SDS011;10277;54.386;18.596;2022-08-19T14:20:35;13.25;;;7.93;;
20236;SDS011;10277;54.386;18.596;2022-08-19T14:25:42;10.23;;;7.38;;
20236;SDS011;10277;54.386;18.596;2022-08-19T14:30:45;13.50;;;7.70;;
20236;SDS011;10277;54.386;18.596;2022-08-19T14:35:50;11.40;;;7.53;;
20236;SDS011;10277;54.386;18.596;2022-08-19T14:41:14;13.30;;;7.63;;
20236;SDS011;10277;54.386;18.596;2022-08-19T14:46:22;10.32;;;7.57;;
20236;SDS011;10277;54.386;18.596;2022-08-19T14:51:31;9.15;;;7.88;;
20236;SDS011;10277;54.386;18.596;2022-08-19T14:56:33;15.80;;;8.23;;
20236;SDS011;10277;54.386;18.596;2022-08-19T15:01:36;10.90;;;7.78;;
20236;SDS011;10277;54.386;18.596;2022-08-19T15:06:44;11.50;;;8.20;;
20236;SDS011;10277;54.386;18.596;2022-08-19T15:11:51;14.43;;;7.78;;
20236;SDS011;10277;54.386;18.596;2022-08-19T15:16:53;13.52;;;9.38;;
20236;SDS011;10277;54.386;18.596;2022-08-19T15:22:01;11.35;;;8.70;;
20236;SDS011;10277;54.386;18.596;2022-08-19T15:27:08;17.65;;;8.40;;
20236;SDS011;10277;54.386;18.596;2022-08-19T15:32:10;10.05;;;9.05;;
20236;SDS011;10277;54.386;18.596;2022-08-19T15:37:19;11.93;;;8.68;;
20236;SDS011;10277;54.386;18.596;2022-08-19T15:42:24;12.40;;;9.23;;
20236;SDS011;10277;54.386;18.596;2022-08-19T15:47:31;10.63;;;9.25;;
20236;SDS011;10277;54.386;18.596;2022-08-19T15:52:43;12.40;;;9.82;;
20236;SDS011;10277;54.386;18.596;2022-08-19T15:57:51;14.75;;;8.73;;
20236;SDS011;10277;54.386;18.596;2022-08-19T16:03:28;13.23;;;8.57;;
20236;SDS011;10277;54.386;18.596;2022-08-19T16:09:02;14.02;;;8.68;;
20236;SDS011;10277;54.386;18.596;2022-08-19T16:14:07;10.70;;;7.72;;
20236;SDS011;10277;54.386;18.596;2022-08-19T16:19:11;15.65;;;8.57;;
20236;SDS011;10277;54.386;18.596;2022-08-19T16:24:23;17.60;;;8.75;;
20236;SDS011;10277;54.386;18.596;2022-08-19T16:29:27;12.55;;;8.75;;
20236;SDS011;10277;54.386;18.596;2022-08-19T16:34:48;20.33;;;9.35;;
20236;SDS011;10277;54.386;18.596;2022-08-19T16:39:52;12.40;;;9.68;;
20236;SDS011;10277;54.386;18.596;2022-08-19T16:44:57;14.75;;;9.93;;
20236;SDS011;10277;54.386;18.596;2022-08-19T16:50:00;14.18;;;9.70;;
20236;SDS011;10277;54.386;18.596;2022-08-19T16:55:03;10.52;;;9.48;;
20236;SDS011;10277;54.386;18.596;2022-08-19T17:00:07;16.00;;;10.52;;
20236;SDS011;10277;54.386;18.596;2022-08-19T17:05:11;13.13;;;9.95;;
20236;SDS011;10277;54.386;18.596;2022-08-19T17:10:14;15.88;;;10.27;;
20236;SDS011;10277;54.386;18.596;2022-08-19T17:15:18;14.23;;;10.02;;
20236;SDS011;10277;54.386;18.596;2022-08-19T17:20:23;17.23;;;10.15;;
20236;SDS011;10277;54.386;18.596;2022-08-19T17:25:29;12.02;;;10.75;;
20236;SDS011;10277;54.386;18.596;2022-08-19T17:30:35;17.60;;;12.52;;
20236;SDS011;10277;54.386;18.596;2022-08-19T17:35:38;12.98;;;10.38;;
20236;SDS011;10277;54.386;18.596;2022-08-19T17:40:47;18.95;;;16.08;;
20236;SDS011;10277;54.386;18.596;2022-08-19T17:45:52;14.45;;;11.25;;
20236;SDS011;10277;54.386;18.596;2022-08-19T17:50:55;14.68;;;11.02;;
20236;SDS011;10277;54.386;18.596;2022-08-19T17:56:04;12.90;;;10.32;;
20236;SDS011;10277;54.386;18.596;2022-08-19T18:01:08;18.88;;;10.60;;
20236;SDS011;10277;54.386;18.596;2022-08-19T18:06:14;11.95;;;10.60;;
20236;SDS011;10277;54.386;18.596;2022-08-19T18:11:17;15.90;;;10.40;;
20236;SDS011;10277;54.386;18.596;2022-08-19T18:16:25;16.30;;;11.00;;
20236;SDS011;10277;54.386;18.596;2022-08-19T18:21:40;15.18;;;10.57;;
20236;SDS011;10277;54.386;18.596;2022-08-19T18:26:42;14.35;;;12.35;;
20236;SDS011;10277;54.386;18.596;2022-08-19T18:31:45;22.90;;;10.88;;
20236;SDS011;10277;54.386;18.596;2022-08-19T18:36:49;16.67;;;14.98;;
20236;SDS011;10277;54.386;18.596;2022-08-19T18:41:57;16.45;;;12.30;;
20236;SDS011;10277;54.386;18.596;2022-08-19T18:47:23;15.73;;;10.13;;
20236;SDS011;10277;54.386;18.596;2022-08-19T18:52:46;14.07;;;11.80;;
20236;SDS011;10277;54.386;18.596;2022-08-19T18:57:51;18.63;;;10.18;;
20236;SDS011;10277;54.386;18.596;2022-08-19T19:02:56;14.85;;;11.48;;
20236;SDS011;10277;54.386;18.596;2022-08-19T19:08:04;13.80;;;10.88;;
20236;SDS011;10277;54.386;18.596;2022-08-19T19:13:10;20.33;;;13.95;;
20236;SDS011;10277;54.386;18.596;2022-08-19T19:18:22;16.42;;;10.45;;
20236;SDS011;10277;54.386;18.596;2022-08-19T19:23:38;17.90;;;10.63;;
20236;SDS011;10277;54.386;18.596;2022-08-19T19:28:48;17.60;;;11.45;;
20236;SDS011;10277;54.386;18.596;2022-08-19T19:33:58;14.30;;;10.45;;
20236;SDS011;10277;54.386;18.596;2022-08-19T19:39:01;17.40;;;10.60;;
20236;SDS011;10277;54.386;18.596;2022-08-19T19:44:09;13.93;;;10.77;;
20236;SDS011;10277;54.386;18.596;2022-08-19T19:49:35;14.57;;;11.13;;
20236;SDS011;10277;54.386;18.596;2022-08-19T19:55:00;13.02;;;11.02;;
20236;SDS011;10277;54.386;18.596;2022-08-19T20:00:06;18.25;;;11.52;;
20236;SDS011;10277;54.386;18.596;2022-08-19T20:05:10;14.30;;;12.00;;
20236;SDS011;10277;54.386;18.596;2022-08-19T20:10:13;15.10;;;11.05;;
20236;SDS011;10277;54.386;18.596;2022-08-19T20:15:32;16.23;;;11.48;;
20236;SDS011;10277;54.386;18.596;2022-08-19T20:20:37;14.32;;;11.27;;
20236;SDS011;10277;54.386;18.596;2022-08-19T20:25:47;13.75;;;11.32;;
20236;SDS011;10277;54.386;18.596;2022-08-19T20:30:53;17.33;;;10.98;;
20236;SDS011;10277;54.386;18.596;2022-08-19T20:35:58;18.45;;;11.55;;
20236;SDS011;10277;54.386;18.596;2022-08-19T20:41:05;12.80;;;11.07;;
20236;SDS011;10277;54.386;18.596;2022-08-19T20:46:12;13.82;;;11.40;;
20236;SDS011;10277;54.386;18.596;2022-08-19T20:51:22;12.52;;;10.57;;
20236;SDS011;10277;54.386;18.596;2022-08-19T20:56:32;17.83;;;11.10;;
20236;SDS011;10277;54.386;18.596;2022-08-19T21:01:39;15.35;;;10.85;;
20236;SDS011;10277;54.386;18.596;2022-08-19T21:06:45;17.15;;;11.57;;
20236;SDS011;10277;54.386;18.596;2022-08-19T21:11:50;12.75;;;11.02;;
20236;SDS011;10277;54.386;18.596;2022-08-19T21:16:57;14.60;;;11.25;;
20236;SDS011;10277;54.386;18.596;2022-08-19T21:22:03;16.55;;;11.30;;
20236;SDS011;10277;54.386;18.596;2022-08-19T21:27:08;16.15;;;10.95;;
20236;SDS011;10277;54.386;18.596;2022-08-19T21:32:14;20.88;;;10.73;;
20236;SDS011;10277;54.386;18.596;2022-08-19T21:37:19;13.50;;;10.40;;
20236;SDS011;10277;54.386;18.596;2022-08-19T21:42:27;14.88;;;11.40;;
20236;SDS011;10277;54.386;18.596;2022-08-19T21:47:30;14.95;;;12.57;;
20236;SDS011;10277;54.386;18.596;2022-08-19T21:52:32;12.55;;;11.25;;
20236;SDS011;10277;54.386;18.596;2022-08-19T21:57:37;14.85;;;10.93;;
20236;SDS011;10277;54.386;18.596;2022-08-19T22:02:42;13.15;;;10.75;;
20236;SDS011;10277;54.386;18.596;2022-08-19T22:07:51;18.17;;;10.15;;
20236;SDS011;10277;54.386;18.596;2022-08-19T22:13:02;12.63;;;10.75;;
20236;SDS011;10277;54.386;18.596;2022-08-19T22:18:09;12.93;;;10.50;;
20236;SDS011;10277;54.386;18.596;2022-08-19T22:23:16;20.92;;;10.27;;
20236;SDS011;10277;54.386;18.596;2022-08-19T22:28:21;14.88;;;10.32;;
20236;SDS011;10277;54.386;18.596;2022-08-19T22:33:29;19.00;;;9.98;;
20236;SDS011;10277;54.386;18.596;2022-08-19T22:38:34;16.40;;;9.55;;
20236;SDS011;10277;54.386;18.596;2022-08-19T22:43:47;12.65;;;9.57;;
20236;SDS011;10277;54.386;18.596;2022-08-19T22:48:49;16.02;;;9.27;;
20236;SDS011;10277;54.386;18.596;2022-08-19T22:54:06;13.10;;;8.93;;
20236;SDS011;10277;54.386;18.596;2022-08-19T22:59:12;18.92;;;9.13;;
20236;SDS011;10277;54.386;18.596;2022-08-19T23:04:18;11.32;;;8.75;;
20236;SDS011;10277;54.386;18.596;2022-08-19T23:09:24;11.70;;;8.98;;
20236;SDS011;10277;54.386;18.596;2022-08-19T23:14:31;10.73;;;8.88;;
20236;SDS011;10277;54.386;18.596;2022-08-19T23:19:36;13.27;;;8.18;;
20236;SDS011;10277;54.386;18.596;2022-08-19T23:24:41;14.57;;;8.63;;
20236;SDS011;10277;54.386;18.596;2022-08-19T23:29:46;11.45;;;8.40;;
20236;SDS011;10277;54.386;18.596;2022-08-19T23:35:08;11.65;;;9.00;;
20236;SDS011;10277;54.386;18.596;2022-08-19T23:40:18;13.23;;;8.98;;
20236;SDS011;10277;54.386;18.596;2022-08-19T23:45:28;11.75;;;8.18;;
20236;SDS011;10277;54.386;18.596;2022-08-19T23:50:38;10.07;;;8.80;;
20236;SDS011;10277;54.386;18.596;2022-08-19T23:55:46;9.77;;;8.75;;
